createdAt,value
2022-08-16T00:00:07.233Z,18.60
2022-08-16T00:01:08.304Z,18.83
2022-08-16T00:02:12.986Z,18.90
2022-08-16T00:03:13.575Z,18.96
2022-08-16T00:04:09.663Z,19.05
2022-08-16T00:05:07.145Z,19.05
2022-08-16T00:06:07.178Z,19.10
2022-08-16T00:07:07.157Z,19.13
2022-08-16T00:08:07.144Z,18.79
2022-08-16T00:09:07.119Z,18.87
2022-08-16T00:10:07.129Z,18.91
2022-08-16T00:11:07.184Z,19.06
2022-08-16T00:12:07.192Z,18.93
2022-08-16T00:13:07.189Z,18.83
2022-08-16T00:14:08.576Z,18.82
2022-08-16T00:15:11.666Z,18.83
2022-08-16T00:17:06.163Z,18.91
2022-08-16T00:17:18.220Z,18.90
2022-08-16T00:18:08.106Z,18.91
2022-08-16T00:19:07.063Z,19.02
2022-08-16T00:20:07.074Z,18.83
2022-08-16T00:21:08.041Z,18.72
2022-08-16T00:22:12.815Z,18.72
2022-08-16T00:23:08.050Z,18.76
2022-08-16T00:24:11.391Z,18.79
2022-08-16T00:25:08.034Z,18.41
2022-08-16T00:26:34.314Z,18.29
2022-08-16T00:27:08.488Z,18.35
2022-08-16T00:28:07.131Z,18.62
2022-08-16T00:29:07.068Z,18.53
2022-08-16T00:30:19.129Z,18.32
2022-08-16T00:31:07.986Z,18.17
2022-08-16T00:32:06.996Z,18.21
2022-08-16T00:33:07.021Z,18.31
2022-08-16T00:34:07.006Z,18.49
2022-08-16T00:35:14.997Z,18.54
2022-08-16T00:36:08.006Z,18.60
2022-08-16T00:37:06.971Z,18.72
2022-08-16T00:38:41.045Z,18.71
2022-08-16T00:39:07.977Z,18.82
2022-08-16T00:40:08.064Z,18.86
2022-08-16T00:41:07.928Z,18.82
2022-08-16T00:42:10.036Z,18.75
2022-08-16T00:43:11.773Z,18.84
2022-08-16T00:44:07.904Z,18.75
2022-08-16T00:45:08.320Z,18.78
2022-08-16T00:46:33.274Z,18.65
2022-08-16T00:47:07.879Z,17.98
2022-08-16T00:48:30.308Z,17.30
2022-08-16T00:49:18.661Z,16.99
2022-08-16T00:50:08.252Z,16.92
2022-08-16T00:51:06.965Z,17.06
2022-08-16T00:52:29.663Z,17.10
2022-08-16T00:53:07.973Z,17.32
2022-08-16T00:54:06.867Z,17.53
2022-08-16T00:55:08.480Z,17.80
2022-08-16T00:56:07.005Z,17.87
2022-08-16T00:57:06.810Z,18.02
2022-08-16T00:58:12.879Z,18.05
2022-08-16T00:59:07.947Z,18.36
2022-08-16T01:00:06.783Z,18.42
2022-08-16T01:01:08.127Z,18.42
2022-08-16T01:02:30.600Z,18.59
2022-08-16T01:03:07.980Z,18.66
2022-08-16T01:04:06.799Z,18.74
2022-08-16T01:05:11.191Z,18.56
2022-08-16T01:06:40.810Z,18.16
2022-08-16T01:07:07.817Z,18.11
2022-08-16T01:08:36.380Z,18.13
2022-08-16T01:09:07.805Z,17.86
2022-08-16T01:10:16.086Z,17.86
2022-08-16T01:11:07.788Z,17.92
2022-08-16T01:12:08.596Z,17.68
2022-08-16T01:13:06.822Z,17.57
2022-08-16T01:14:06.760Z,17.62
2022-08-16T01:15:06.988Z,17.74
2022-08-16T01:16:10.321Z,17.87
2022-08-16T01:17:08.339Z,17.63
2022-08-16T01:18:06.679Z,17.71
2022-08-16T01:19:06.703Z,17.81
2022-08-16T01:20:23.644Z,17.87
2022-08-16T01:21:07.666Z,18.01
2022-08-16T01:22:48.193Z,18.02
2022-08-16T01:23:08.811Z,18.13
2022-08-16T01:24:51.552Z,18.04
2022-08-16T01:25:07.737Z,18.10
2022-08-16T01:26:34.382Z,18.13
2022-08-16T01:27:07.714Z,18.32
2022-08-16T01:28:06.702Z,18.39
2022-08-16T01:29:06.662Z,18.35
2022-08-16T01:30:20.659Z,18.44
2022-08-16T01:31:07.632Z,18.41
2022-08-16T01:32:06.699Z,18.51
2022-08-16T01:33:15.565Z,18.54
2022-08-16T01:34:07.752Z,18.47
2022-08-16T01:35:07.610Z,18.42
2022-08-16T01:36:09.471Z,18.46
2022-08-16T01:37:07.567Z,18.47
2022-08-16T01:38:06.732Z,18.21
2022-08-16T01:39:06.571Z,17.94
2022-08-16T01:40:07.803Z,17.99
2022-08-16T01:41:06.626Z,18.02
2022-08-16T01:42:12.075Z,17.89
2022-08-16T01:43:07.544Z,17.84
2022-08-16T01:44:06.536Z,17.55
2022-08-16T01:45:06.513Z,17.24
2022-08-16T01:46:29.321Z,17.12
2022-08-16T01:47:07.521Z,17.09
2022-08-16T01:48:19.275Z,16.91
2022-08-16T01:49:07.577Z,16.96
2022-08-16T01:50:42.276Z,16.87
2022-08-16T01:51:09.032Z,16.75
2022-08-16T01:52:06.503Z,16.91
2022-08-16T01:53:07.673Z,16.92
2022-08-16T01:54:06.481Z,16.99
2022-08-16T01:55:06.493Z,17.27
2022-08-16T01:56:06.449Z,17.24
2022-08-16T01:57:06.479Z,17.27
2022-08-16T01:58:07.491Z,17.18
2022-08-16T01:59:06.453Z,16.96
2022-08-16T02:00:10.444Z,16.95
2022-08-16T02:01:07.647Z,17.03
2022-08-16T02:02:26.865Z,16.98
2022-08-16T02:03:07.517Z,16.85
2022-08-16T02:04:10.886Z,16.84
2022-08-16T02:05:06.401Z,16.90
2022-08-16T02:06:08.102Z,17.00
2022-08-16T02:07:06.703Z,17.12
2022-08-16T02:08:06.381Z,17.17
2022-08-16T02:09:06.356Z,17.40
2022-08-16T02:10:06.444Z,17.55
2022-08-16T02:11:06.370Z,17.71
2022-08-16T02:12:39.721Z,17.86
2022-08-16T02:13:07.770Z,18.04
2022-08-16T02:14:06.591Z,18.01
2022-08-16T02:15:07.477Z,17.95
2022-08-16T02:16:06.515Z,17.80
2022-08-16T02:17:07.354Z,17.95
2022-08-16T02:18:06.853Z,17.73
2022-08-16T02:19:16.265Z,17.63
2022-08-16T02:20:11.351Z,17.36
2022-08-16T02:21:06.309Z,17.20
2022-08-16T02:22:08.375Z,17.07
2022-08-16T02:23:07.475Z,16.91
2022-08-16T02:24:31.401Z,16.69
2022-08-16T02:25:09.899Z,16.73
2022-08-16T02:26:06.286Z,16.92
2022-08-16T02:27:07.273Z,17.05
2022-08-16T02:28:06.320Z,17.17
2022-08-16T02:29:06.225Z,17.20
2022-08-16T02:30:07.255Z,17.39
2022-08-16T02:31:06.222Z,17.51
2022-08-16T02:32:49.070Z,17.62
2022-08-16T02:33:07.675Z,17.74
2022-08-16T02:34:06.605Z,17.83
2022-08-16T02:35:06.225Z,17.92
2022-08-16T02:36:06.196Z,17.96
2022-08-16T02:37:07.191Z,18.02
2022-08-16T02:38:08.926Z,17.99
2022-08-16T02:39:06.376Z,18.14
2022-08-16T02:40:06.370Z,17.99
2022-08-16T02:41:09.735Z,17.94
2022-08-16T02:42:07.272Z,17.91
2022-08-16T02:43:06.165Z,17.94
2022-08-16T02:44:06.166Z,17.98
2022-08-16T02:45:06.168Z,17.73
2022-08-16T02:46:07.720Z,17.27
2022-08-16T02:47:06.193Z,17.03
2022-08-16T02:48:28.616Z,17.00
2022-08-16T02:49:07.211Z,16.87
2022-08-16T02:51:05.858Z,16.57
2022-08-16T02:51:11.058Z,16.44
2022-08-16T02:52:06.106Z,16.41
2022-08-16T02:53:06.124Z,16.44
2022-08-16T02:54:06.083Z,16.69
2022-08-16T02:55:06.098Z,16.80
2022-08-16T02:56:06.180Z,16.99
2022-08-16T02:57:06.107Z,17.07
2022-08-16T02:58:06.090Z,17.20
2022-08-16T02:59:11.781Z,17.45
2022-08-16T03:00:32.400Z,17.62
2022-08-16T03:01:07.162Z,17.65
2022-08-16T03:02:08.869Z,17.71
2022-08-16T03:03:10.531Z,17.84
2022-08-16T03:04:40.871Z,17.76
2022-08-16T03:05:07.048Z,17.94
2022-08-16T03:06:41.747Z,18.02
2022-08-16T03:07:07.030Z,17.98
2022-08-16T03:08:05.980Z,18.02
2022-08-16T03:09:08.868Z,18.09
2022-08-16T03:10:07.440Z,18.07
2022-08-16T03:11:05.972Z,18.11
2022-08-16T03:12:06.981Z,18.02
2022-08-16T03:13:12.403Z,18.05
2022-08-16T03:14:07.551Z,17.89
2022-08-16T03:15:05.959Z,17.84
2022-08-16T03:16:05.988Z,17.55
2022-08-16T03:17:06.956Z,17.46
2022-08-16T03:18:05.965Z,17.45
2022-08-16T03:19:06.972Z,17.62
2022-08-16T03:20:05.960Z,17.65
2022-08-16T03:21:05.942Z,17.68
2022-08-16T03:22:05.914Z,17.76
2022-08-16T03:23:05.935Z,17.83
2022-08-16T03:24:05.913Z,17.71
2022-08-16T03:25:07.290Z,17.38
2022-08-16T03:26:05.894Z,16.85
2022-08-16T03:27:06.924Z,16.72
2022-08-16T03:28:05.904Z,16.62
2022-08-16T03:29:05.840Z,16.84
2022-08-16T03:30:16.667Z,16.85
2022-08-16T03:31:06.906Z,17.00
2022-08-16T03:32:05.834Z,16.99
2022-08-16T03:33:05.812Z,16.82
2022-08-16T03:34:05.864Z,16.69
2022-08-16T03:35:06.117Z,16.72
2022-08-16T03:36:19.887Z,16.78
2022-08-16T03:37:06.896Z,16.91
2022-08-16T03:38:33.883Z,16.82
2022-08-16T03:39:10.741Z,16.90
2022-08-16T03:40:06.904Z,17.15
2022-08-16T03:41:24.207Z,17.03
2022-08-16T03:42:06.804Z,17.10
2022-08-16T03:43:19.651Z,16.99
2022-08-16T03:44:06.811Z,17.07
2022-08-16T03:45:05.763Z,17.25
2022-08-16T03:46:05.785Z,17.33
2022-08-16T03:47:10.401Z,17.35
2022-08-16T03:48:07.216Z,17.43
2022-08-16T03:49:05.724Z,17.33
2022-08-16T03:50:25.579Z,17.17
2022-08-16T03:51:06.779Z,17.22
2022-08-16T03:52:05.710Z,17.32
2022-08-16T03:53:06.066Z,17.33
2022-08-16T03:54:12.604Z,17.45
2022-08-16T03:55:06.689Z,17.55
2022-08-16T03:56:05.848Z,17.57
2022-08-16T03:57:05.670Z,17.51
2022-08-16T03:58:06.679Z,17.45
2022-08-16T03:59:05.673Z,17.40
2022-08-16T04:00:05.901Z,17.45
2022-08-16T04:01:05.702Z,17.38
2022-08-16T04:02:10.681Z,17.45
2022-08-16T04:03:08.848Z,17.18
2022-08-16T04:04:05.644Z,17.32
2022-08-16T04:05:05.652Z,17.27
2022-08-16T04:06:05.613Z,17.25
2022-08-16T04:07:07.177Z,17.30
2022-08-16T04:08:23.666Z,17.28
2022-08-16T04:09:06.629Z,17.30
2022-08-16T04:10:36.407Z,17.17
2022-08-16T04:11:06.584Z,17.15
2022-08-16T04:12:10.781Z,17.22
2022-08-16T04:13:06.710Z,17.25
2022-08-16T04:14:33.001Z,17.32
2022-08-16T04:15:07.108Z,17.42
2022-08-16T04:16:06.519Z,17.45
2022-08-16T04:17:05.558Z,17.53
2022-08-16T04:18:05.529Z,17.49
2022-08-16T04:19:06.585Z,17.68
2022-08-16T04:20:06.578Z,17.60
2022-08-16T04:21:06.527Z,17.65
2022-08-16T04:22:08.486Z,17.77
2022-08-16T04:23:06.302Z,17.83
2022-08-16T04:24:07.849Z,17.81
2022-08-16T04:25:05.513Z,17.84
2022-08-16T04:26:05.500Z,17.94
2022-08-16T04:27:05.530Z,17.96
2022-08-16T04:28:51.571Z,17.84
2022-08-16T04:29:15.070Z,17.70
2022-08-16T04:30:10.771Z,17.46
2022-08-16T04:31:07.359Z,17.09
2022-08-16T04:32:06.480Z,17.14
2022-08-16T04:33:05.463Z,17.28
2022-08-16T04:34:05.452Z,17.65
2022-08-16T04:35:09.370Z,18.02
2022-08-16T04:36:07.444Z,18.42
2022-08-16T04:37:05.459Z,18.82
2022-08-16T04:38:10.705Z,19.06
2022-08-16T04:39:06.425Z,19.38
2022-08-16T04:40:05.565Z,19.57
2022-08-16T04:41:05.395Z,19.83
2022-08-16T04:42:11.147Z,20.10
2022-08-16T04:43:06.384Z,20.42
2022-08-16T04:44:31.005Z,20.71
2022-08-16T04:45:06.409Z,20.83
2022-08-16T04:46:05.349Z,21.06
2022-08-16T04:47:21.375Z,21.27
2022-08-16T04:48:06.356Z,21.49
2022-08-16T04:49:05.333Z,21.34
2022-08-16T04:50:05.432Z,20.98
2022-08-16T04:51:11.513Z,20.73
2022-08-16T04:52:06.361Z,20.79
2022-08-16T04:53:06.314Z,20.98
2022-08-16T04:54:05.304Z,21.15
2022-08-16T04:55:05.347Z,21.38
2022-08-16T04:56:05.281Z,21.45
2022-08-16T04:57:06.370Z,21.70
2022-08-16T04:58:44.825Z,21.55
2022-08-16T04:59:06.293Z,21.06
2022-08-16T05:00:32.395Z,20.61
2022-08-16T05:01:08.018Z,20.91
2022-08-16T05:02:42.149Z,21.09
2022-08-16T05:03:07.300Z,20.98
2022-08-16T05:04:05.247Z,20.94
2022-08-16T05:05:06.252Z,20.51
2022-08-16T05:06:07.064Z,20.72
2022-08-16T05:07:05.213Z,21.09
2022-08-16T05:08:29.079Z,21.40
2022-08-16T05:09:06.215Z,21.82
2022-08-16T05:10:05.217Z,22.09
2022-08-16T05:11:08.477Z,21.94
2022-08-16T05:12:05.182Z,22.17
2022-08-16T05:13:05.298Z,22.46
2022-08-16T05:14:06.770Z,22.69
2022-08-16T05:15:05.158Z,22.79
2022-08-16T05:16:06.104Z,23.04
2022-08-16T05:17:05.165Z,23.39
2022-08-16T05:18:05.181Z,23.54
2022-08-16T05:19:05.166Z,23.68
2022-08-16T05:20:39.403Z,23.79
2022-08-16T05:21:11.081Z,23.94
2022-08-16T05:22:06.129Z,24.11
2022-08-16T05:23:06.385Z,24.18
2022-08-16T05:24:06.911Z,24.33
2022-08-16T05:25:09.117Z,24.31
2022-08-16T05:26:05.316Z,24.33
2022-08-16T05:27:11.585Z,24.51
2022-08-16T05:28:06.343Z,24.37
2022-08-16T05:29:05.086Z,24.29
2022-08-16T05:30:35.020Z,23.44
2022-08-16T05:31:07.078Z,22.35
2022-08-16T05:32:05.062Z,21.94
2022-08-16T05:33:06.085Z,22.06
2022-08-16T05:34:05.110Z,22.21
2022-08-16T05:35:06.031Z,22.12
2022-08-16T05:36:05.088Z,22.05
2022-08-16T05:37:06.023Z,22.23
2022-08-16T05:38:05.000Z,22.36
2022-08-16T05:39:06.029Z,22.59
2022-08-16T05:40:06.038Z,22.39
2022-08-16T05:41:04.978Z,22.51
2022-08-16T05:42:05.026Z,22.82
2022-08-16T05:43:04.980Z,23.21
2022-08-16T05:44:05.336Z,23.42
2022-08-16T05:45:06.741Z,23.75
2022-08-16T05:46:05.218Z,24.00
2022-08-16T05:47:06.170Z,23.97
2022-08-16T05:48:05.068Z,24.08
2022-08-16T05:49:09.073Z,24.15
2022-08-16T05:50:04.945Z,24.23
2022-08-16T05:51:05.020Z,24.34
2022-08-16T05:52:05.145Z,24.39
2022-08-16T05:53:05.989Z,24.42
2022-08-16T05:54:05.074Z,24.44
2022-08-16T05:55:05.250Z,24.24
2022-08-16T05:56:04.867Z,23.99
2022-08-16T05:57:05.911Z,23.77
2022-08-16T05:58:04.934Z,23.53
2022-08-16T05:59:06.536Z,23.59
2022-08-16T06:00:09.075Z,23.31
2022-08-16T06:01:06.133Z,23.04
2022-08-16T06:02:06.149Z,23.06
2022-08-16T06:03:04.904Z,22.97
2022-08-16T06:04:12.711Z,23.09
2022-08-16T06:05:05.821Z,23.31
2022-08-16T06:06:05.843Z,23.47
2022-08-16T06:07:06.804Z,23.63
2022-08-16T06:08:05.894Z,23.74
2022-08-16T06:09:04.840Z,23.86
2022-08-16T06:10:04.860Z,23.97
2022-08-16T06:11:09.947Z,24.02
2022-08-16T06:12:05.757Z,24.08
2022-08-16T06:13:04.905Z,24.06
2022-08-16T06:14:04.981Z,24.11
2022-08-16T06:15:09.703Z,24.16
2022-08-16T06:16:05.815Z,24.15
2022-08-16T06:17:05.335Z,24.21
2022-08-16T06:18:04.724Z,24.33
2022-08-16T06:19:05.135Z,24.36
2022-08-16T06:20:04.773Z,24.45
2022-08-16T06:21:04.708Z,24.45
2022-08-16T06:22:04.681Z,24.56
2022-08-16T06:23:11.844Z,24.61
2022-08-16T06:24:54.305Z,24.66
2022-08-16T06:25:05.678Z,24.61
2022-08-16T06:26:07.459Z,24.61
2022-08-16T06:27:04.665Z,24.64
2022-08-16T06:28:08.380Z,24.64
2022-08-16T06:29:05.094Z,24.67
2022-08-16T06:30:04.698Z,24.37
2022-08-16T06:31:04.808Z,24.44
2022-08-16T06:32:04.767Z,24.46
2022-08-16T06:33:04.618Z,24.46
2022-08-16T06:34:04.617Z,24.39
2022-08-16T06:35:05.623Z,24.44
2022-08-16T06:36:04.630Z,24.44
2022-08-16T06:37:04.621Z,24.51
2022-08-16T06:38:04.678Z,24.45
2022-08-16T06:39:06.136Z,24.49
2022-08-16T06:40:04.784Z,24.61
2022-08-16T06:41:04.696Z,24.63
2022-08-16T06:42:04.551Z,24.70
2022-08-16T06:43:04.623Z,24.59
2022-08-16T06:44:04.550Z,24.61
2022-08-16T06:45:04.559Z,24.68
2022-08-16T06:46:04.560Z,24.64
2022-08-16T06:47:04.533Z,24.66
2022-08-16T06:48:04.580Z,24.55
2022-08-16T06:49:05.151Z,24.67
2022-08-16T06:50:04.647Z,24.71
2022-08-16T06:51:04.530Z,24.83
2022-08-16T06:52:04.541Z,24.92
2022-08-16T06:53:08.687Z,24.94
2022-08-16T06:54:05.538Z,25.11
2022-08-16T06:55:04.501Z,25.17
2022-08-16T06:56:04.481Z,25.24
2022-08-16T06:57:04.504Z,25.41
2022-08-16T06:58:08.402Z,25.39
2022-08-16T06:59:04.461Z,25.31
2022-08-16T07:00:04.472Z,25.36
2022-08-16T07:01:10.053Z,25.49
2022-08-16T07:02:05.519Z,25.49
2022-08-16T07:03:28.061Z,25.54
2022-08-16T07:04:10.973Z,25.42
2022-08-16T07:05:14.929Z,25.46
2022-08-16T07:06:05.409Z,25.35
2022-08-16T07:07:04.422Z,25.31
2022-08-16T07:08:04.369Z,25.42
2022-08-16T07:09:09.534Z,25.44
2022-08-16T07:10:08.694Z,25.54
2022-08-16T07:11:04.533Z,25.59
2022-08-16T07:12:05.725Z,25.67
2022-08-16T07:13:08.242Z,25.75
2022-08-16T07:14:25.130Z,25.69
2022-08-16T07:15:05.377Z,25.72
2022-08-16T07:16:04.345Z,25.64
2022-08-16T07:17:08.191Z,24.97
2022-08-16T07:18:05.325Z,24.86
2022-08-16T07:19:05.357Z,24.89
2022-08-16T07:20:30.302Z,24.71
2022-08-16T07:21:06.309Z,24.48
2022-08-16T07:22:05.368Z,24.37
2022-08-16T07:23:13.507Z,24.34
2022-08-16T07:24:05.524Z,24.41
2022-08-16T07:25:04.329Z,24.60
2022-08-16T07:26:04.268Z,24.70
2022-08-16T07:27:04.267Z,24.93
2022-08-16T07:28:04.284Z,24.98
2022-08-16T07:29:04.283Z,25.19
2022-08-16T07:30:04.721Z,25.36
2022-08-16T07:31:05.360Z,25.26
2022-08-16T07:32:05.302Z,24.77
2022-08-16T07:33:04.238Z,24.53
2022-08-16T07:34:04.233Z,24.34
2022-08-16T07:35:05.263Z,24.37
2022-08-16T07:36:04.221Z,24.19
2022-08-16T07:37:04.227Z,24.08
2022-08-16T07:38:04.214Z,24.24
2022-08-16T07:39:04.193Z,24.46
2022-08-16T07:40:11.197Z,24.74
2022-08-16T07:41:10.198Z,24.99
2022-08-16T07:42:06.810Z,25.01
2022-08-16T07:43:04.187Z,25.04
2022-08-16T07:44:15.438Z,24.94
2022-08-16T07:45:07.691Z,24.60
2022-08-16T07:46:05.162Z,24.21
2022-08-16T07:47:05.113Z,24.15
2022-08-16T07:48:11.765Z,24.18
2022-08-16T07:49:05.117Z,24.33
2022-08-16T07:50:07.378Z,24.46
2022-08-16T07:51:06.825Z,24.59
2022-08-16T07:52:18.989Z,24.86
2022-08-16T07:53:05.085Z,24.36
2022-08-16T07:54:09.742Z,24.31
2022-08-16T07:55:05.101Z,24.31
2022-08-16T07:56:04.451Z,24.46
2022-08-16T07:57:04.152Z,24.79
2022-08-16T07:58:04.127Z,25.08
2022-08-16T07:59:04.094Z,25.17
2022-08-16T08:00:04.058Z,24.90
2022-08-16T08:01:04.115Z,24.90
2022-08-16T08:02:04.113Z,25.01
2022-08-16T08:03:05.067Z,25.02
2022-08-16T08:04:04.055Z,25.04
2022-08-16T08:05:04.035Z,24.98
2022-08-16T08:06:03.995Z,25.07
2022-08-16T08:07:09.093Z,25.23
2022-08-16T08:08:11.991Z,25.45
2022-08-16T08:09:04.998Z,25.45
2022-08-16T08:10:04.801Z,25.41
2022-08-16T08:11:04.055Z,25.60
2022-08-16T08:12:05.557Z,25.41
2022-08-16T08:13:03.947Z,25.31
2022-08-16T08:14:06.806Z,24.94
2022-08-16T08:15:04.188Z,25.09
2022-08-16T08:16:03.941Z,25.04
2022-08-16T08:17:03.936Z,24.99
2022-08-16T08:18:29.445Z,25.14
2022-08-16T08:19:04.975Z,25.51
2022-08-16T08:20:03.939Z,25.53
2022-08-16T08:21:03.980Z,25.74
2022-08-16T08:22:06.134Z,25.91
2022-08-16T08:23:03.997Z,25.89
2022-08-16T08:24:03.956Z,25.94
2022-08-16T08:25:04.912Z,26.13
2022-08-16T08:26:05.322Z,26.41
2022-08-16T08:27:04.881Z,26.32
2022-08-16T08:28:04.062Z,26.31
2022-08-16T08:29:04.928Z,26.35
2022-08-16T08:30:49.015Z,26.27
2022-08-16T08:31:04.968Z,26.09
2022-08-16T08:32:04.002Z,25.98
2022-08-16T08:33:05.090Z,25.97
2022-08-16T08:34:04.805Z,25.91
2022-08-16T08:35:04.357Z,25.91
2022-08-16T08:36:03.939Z,25.82
2022-08-16T08:37:03.849Z,25.83
2022-08-16T08:38:03.961Z,26.04
2022-08-16T08:39:03.804Z,26.13
2022-08-16T08:40:04.798Z,25.98
2022-08-16T08:41:03.833Z,26.08
2022-08-16T08:42:03.809Z,26.27
2022-08-16T08:43:12.051Z,26.46
2022-08-16T08:44:29.412Z,26.46
2022-08-16T08:45:04.763Z,26.60
2022-08-16T08:46:03.753Z,26.73
2022-08-16T08:47:09.318Z,26.98
2022-08-16T08:48:05.914Z,27.20
2022-08-16T08:49:03.749Z,27.30
2022-08-16T08:50:03.712Z,26.79
2022-08-16T08:51:03.731Z,26.36
2022-08-16T08:52:03.743Z,26.16
2022-08-16T08:53:03.743Z,26.32
2022-08-16T08:54:03.680Z,26.56
2022-08-16T08:55:03.673Z,26.59
2022-08-16T08:56:22.905Z,26.79
2022-08-16T08:57:04.703Z,26.94
2022-08-16T08:58:03.705Z,27.03
2022-08-16T08:59:06.366Z,27.35
2022-08-16T09:00:12.935Z,27.58
2022-08-16T09:01:04.726Z,27.66
2022-08-16T09:02:03.662Z,27.83
2022-08-16T09:03:04.247Z,27.91
2022-08-16T09:04:03.699Z,27.80
2022-08-16T09:05:15.658Z,27.55
2022-08-16T09:06:04.635Z,27.58
2022-08-16T09:07:03.612Z,27.34
2022-08-16T09:08:05.672Z,27.38
2022-08-16T09:09:03.637Z,27.46
2022-08-16T09:10:06.746Z,27.80
2022-08-16T09:11:04.660Z,27.88
2022-08-16T09:12:06.487Z,28.11
2022-08-16T09:13:03.627Z,28.24
2022-08-16T09:14:03.651Z,28.17
2022-08-16T09:15:03.624Z,28.25
2022-08-16T09:16:03.580Z,28.40
2022-08-16T09:17:11.990Z,28.54
2022-08-16T09:18:26.493Z,28.62
2022-08-16T09:19:04.564Z,28.88
2022-08-16T09:20:05.084Z,29.05
2022-08-16T09:21:04.596Z,29.11
2022-08-16T09:22:03.574Z,28.91
2022-08-16T09:23:03.557Z,29.00
2022-08-16T09:24:03.500Z,28.95
2022-08-16T09:25:10.934Z,29.11
2022-08-16T09:26:43.078Z,29.11
2022-08-16T09:27:04.571Z,29.08
2022-08-16T09:28:09.377Z,29.08
2022-08-16T09:29:15.751Z,28.94
2022-08-16T09:30:34.152Z,28.40
2022-08-16T09:31:04.500Z,28.21
2022-08-16T09:32:04.097Z,28.13
2022-08-16T09:33:03.472Z,28.35
2022-08-16T09:34:03.436Z,28.62
2022-08-16T09:35:03.505Z,28.82
2022-08-16T09:36:03.503Z,29.12
2022-08-16T09:37:03.467Z,29.18
2022-08-16T09:38:04.422Z,29.39
2022-08-16T09:39:03.458Z,29.10
2022-08-16T09:40:03.639Z,28.57
2022-08-16T09:41:04.549Z,28.30
2022-08-16T09:42:03.396Z,28.54
2022-08-16T09:43:03.596Z,28.83
2022-08-16T09:45:09.188Z,28.76
2022-08-16T09:45:10.808Z,28.70
2022-08-16T09:46:04.376Z,28.76
2022-08-16T09:47:10.159Z,28.91
2022-08-16T09:48:04.401Z,29.02
2022-08-16T09:49:04.327Z,29.18
2022-08-16T09:50:03.331Z,29.23
2022-08-16T09:51:04.562Z,29.18
2022-08-16T09:52:03.384Z,29.12
2022-08-16T09:53:03.349Z,28.80
2022-08-16T09:54:03.339Z,28.40
2022-08-16T09:55:03.332Z,28.28
2022-08-16T09:56:03.346Z,28.50
2022-08-16T09:57:04.387Z,28.65
2022-08-16T09:58:03.372Z,28.61
2022-08-16T09:59:08.004Z,28.39
2022-08-16T10:00:04.288Z,28.42
2022-08-16T10:01:04.328Z,28.60
2022-08-16T10:02:26.725Z,28.80
2022-08-16T10:03:04.502Z,29.08
2022-08-16T10:04:04.734Z,28.83
2022-08-16T10:05:04.323Z,28.36
2022-08-16T10:06:03.252Z,27.77
2022-08-16T10:07:13.105Z,27.84
2022-08-16T10:08:26.456Z,28.11
2022-08-16T10:09:08.256Z,28.14
2022-08-16T10:10:03.420Z,28.35
2022-08-16T10:11:03.337Z,28.38
2022-08-16T10:12:11.483Z,28.50
2022-08-16T10:13:04.255Z,28.67
2022-08-16T10:14:03.313Z,28.85
2022-08-16T10:15:03.322Z,29.14
2022-08-16T10:16:03.249Z,29.12
2022-08-16T10:17:03.238Z,28.80
2022-08-16T10:18:56.348Z,28.55
2022-08-16T10:19:06.625Z,28.65
2022-08-16T10:20:03.173Z,28.27
2022-08-16T10:21:03.180Z,28.25
2022-08-16T10:22:05.002Z,28.50
2022-08-16T10:23:07.556Z,28.83
2022-08-16T10:24:04.143Z,28.74
2022-08-16T10:25:03.168Z,28.57
2022-08-16T10:27:18.139Z,28.54
2022-08-16T10:27:25.403Z,28.65
2022-08-16T10:28:28.038Z,28.80
2022-08-16T10:29:05.118Z,29.03
2022-08-16T10:30:07.153Z,29.36
2022-08-16T10:31:04.350Z,29.57
2022-08-16T10:32:03.476Z,29.70
2022-08-16T10:33:03.108Z,29.94
2022-08-16T10:34:03.064Z,30.06
2022-08-16T10:35:03.062Z,30.29
2022-08-16T10:36:04.189Z,30.42
2022-08-16T10:37:04.054Z,30.04
2022-08-16T10:38:06.665Z,29.89
2022-08-16T10:39:04.433Z,30.10
2022-08-16T10:40:03.078Z,30.16
2022-08-16T10:41:03.065Z,30.49
2022-08-16T10:42:03.027Z,30.61
2022-08-16T10:43:03.061Z,30.85
2022-08-16T10:44:04.021Z,30.97
2022-08-16T10:45:03.988Z,31.12
2022-08-16T10:46:03.015Z,30.96
2022-08-16T10:47:04.074Z,30.96
2022-08-16T10:48:03.638Z,30.93
2022-08-16T10:49:05.320Z,31.12
2022-08-16T10:50:02.953Z,31.00
2022-08-16T10:51:03.014Z,30.83
2022-08-16T10:52:18.756Z,30.32
2022-08-16T10:53:05.875Z,29.99
2022-08-16T10:54:04.760Z,28.91
2022-08-16T10:56:05.371Z,28.64
2022-08-16T10:57:04.508Z,28.69
2022-08-16T10:58:11.395Z,28.88
2022-08-16T11:00:04.903Z,29.47
2022-08-16T11:01:25.072Z,29.76
2022-08-16T11:03:05.196Z,30.16
2022-08-16T11:04:02.954Z,30.42
2022-08-16T11:05:06.287Z,30.10
2022-08-16T11:06:06.552Z,29.18
2022-08-16T11:07:43.169Z,29.10
2022-08-16T11:08:05.466Z,29.47
2022-08-16T11:10:20.953Z,30.10
2022-08-16T11:11:11.530Z,30.23
2022-08-16T11:12:13.493Z,30.56
2022-08-16T11:14:10.859Z,30.98
2022-08-16T11:15:12.216Z,31.15
2022-08-16T11:17:09.257Z,31.25
2022-08-16T11:19:12.390Z,31.27
2022-08-16T11:21:03.763Z,30.45
2022-08-16T11:22:38.821Z,29.66
2022-08-16T11:23:04.754Z,30.00
2022-08-16T11:24:02.788Z,29.79
2022-08-16T11:26:07.362Z,29.95
2022-08-16T11:26:16.360Z,30.19
2022-08-16T11:27:22.898Z,30.36
2022-08-16T11:28:04.769Z,29.84
2022-08-16T11:29:18.040Z,29.95
2022-08-16T11:30:04.697Z,30.11
2022-08-16T11:31:02.700Z,30.22
2022-08-16T11:32:02.724Z,30.67
2022-08-16T11:33:02.696Z,30.91
2022-08-16T11:34:02.683Z,31.09
2022-08-16T11:35:15.063Z,31.22
2022-08-16T11:37:04.650Z,31.74
2022-08-16T11:38:46.725Z,30.88
2022-08-16T11:39:04.924Z,29.47
2022-08-16T11:40:03.781Z,29.27
2022-08-16T11:41:02.613Z,29.55
2022-08-16T11:42:02.675Z,30.00
2022-08-16T11:43:04.630Z,30.48
2022-08-16T11:44:02.608Z,30.76
2022-08-16T11:45:02.606Z,30.97
2022-08-16T11:46:44.521Z,31.04
2022-08-16T11:47:03.632Z,31.27
2022-08-16T11:48:02.643Z,31.53
2022-08-16T11:49:02.564Z,31.56
2022-08-16T11:50:02.581Z,31.62
2022-08-16T11:51:02.598Z,31.34
2022-08-16T11:52:02.561Z,30.86
2022-08-16T11:53:03.682Z,30.85
2022-08-16T11:54:02.543Z,31.03
2022-08-16T11:55:02.604Z,30.73
2022-08-16T11:56:02.530Z,29.86
2022-08-16T11:57:02.501Z,29.97
2022-08-16T11:58:02.513Z,30.26
2022-08-16T11:59:02.500Z,30.73
2022-08-16T12:00:02.498Z,31.01
2022-08-16T12:01:02.520Z,31.22
2022-08-16T12:02:11.581Z,31.59
2022-08-16T12:03:03.468Z,31.71
2022-08-16T12:04:02.564Z,31.49
2022-08-16T12:05:02.456Z,31.54
2022-08-16T12:06:02.541Z,31.88
2022-08-16T12:07:02.470Z,31.94
2022-08-16T12:08:05.447Z,32.12
2022-08-16T12:09:02.429Z,32.31
2022-08-16T12:10:02.413Z,31.60
2022-08-16T12:11:02.730Z,31.40
2022-08-16T12:12:03.037Z,31.32
2022-08-16T12:13:02.831Z,31.54
2022-08-16T12:14:04.609Z,31.69
2022-08-16T12:15:02.405Z,31.64
2022-08-16T12:16:02.381Z,31.16
2022-08-16T12:17:02.397Z,31.12
2022-08-16T12:18:02.420Z,30.66
2022-08-16T12:19:02.386Z,30.94
2022-08-16T12:20:02.408Z,31.15
2022-08-16T12:21:03.844Z,31.30
2022-08-16T12:22:05.948Z,31.20
2022-08-16T12:23:03.390Z,31.16
2022-08-16T12:24:02.316Z,31.20
2022-08-16T12:25:02.360Z,31.32
2022-08-16T12:26:02.311Z,31.41
2022-08-16T12:27:03.311Z,31.56
2022-08-16T12:28:02.917Z,31.52
2022-08-16T12:29:02.282Z,31.67
2022-08-16T12:30:02.338Z,31.91
2022-08-16T12:31:02.302Z,32.03
2022-08-16T12:32:27.179Z,31.95
2022-08-16T12:33:04.341Z,31.82
2022-08-16T12:34:02.266Z,31.09
2022-08-16T12:35:03.175Z,30.48
2022-08-16T12:36:02.270Z,30.57
2022-08-16T12:37:02.256Z,30.34
2022-08-16T12:38:37.931Z,30.44
2022-08-16T12:39:03.245Z,30.40
2022-08-16T12:40:02.471Z,30.53
2022-08-16T12:41:02.219Z,30.68
2022-08-16T12:42:02.201Z,30.25
2022-08-16T12:43:02.222Z,29.47
2022-08-16T12:44:02.204Z,29.55
2022-08-16T12:45:02.210Z,29.85
2022-08-16T12:46:02.298Z,30.16
2022-08-16T12:47:02.172Z,30.49
2022-08-16T12:48:31.746Z,30.73
2022-08-16T12:49:04.170Z,30.96
2022-08-16T12:50:02.176Z,31.23
2022-08-16T12:51:02.171Z,31.32
2022-08-16T12:52:02.730Z,31.30
2022-08-16T12:53:02.137Z,31.54
2022-08-16T12:54:02.152Z,31.41
2022-08-16T12:55:02.202Z,31.34
2022-08-16T12:56:02.127Z,31.31
2022-08-16T12:57:02.101Z,31.13
2022-08-16T12:58:02.127Z,31.18
2022-08-16T12:59:02.075Z,31.52
2022-08-16T13:00:02.117Z,31.60
2022-08-16T13:01:02.197Z,30.78